METAR Data
IDs: Format: Raw Decoded Include TAF

Data at: 1845 UTC 16 Oct 2021

KERV 161835Z AUTO 36006G09KT 10SM CLR 21/01 A3037 RMK AO2 T02050012
KERV 161815Z AUTO 02009KT 10SM CLR 21/02 A3038 RMK AO2 T02050024
KERV 161755Z AUTO 04010G14KT 10SM CLR 20/03 A3039 RMK AO2 T02000028 10200 20092
KERV 161735Z AUTO 01010KT 10SM CLR 19/01 A3040 RMK AO2 T01940014
KERV 161715Z AUTO 04010G16KT 10SM CLR 19/01 A3041 RMK AO2 T01900008
KERV 161655Z AUTO 04009G19KT 10SM CLR 18/01 A3041 RMK AO2 T01840010
KERV 161635Z AUTO 36011G14KT 10SM CLR 18/03 A3041 RMK AO2 T01810031
KERV 161615Z AUTO 04010G14KT 10SM CLR 18/02 A3041 RMK AO2 T01750021
KERV 161555Z AUTO 06010G15KT 020V080 10SM CLR 17/02 A3041 RMK AO2 T01710020
KERV 161535Z AUTO 03013G19KT 10SM CLR 17/03 A3041 RMK AO2 T01680027
KERV 161515Z AUTO 04009G19KT 10SM CLR 16/03 A3041 RMK AO2 T01620032
KERV 161455Z AUTO 03011KT 10SM CLR 16/04 A3041 RMK AO2 T01560038
KERV 161435Z AUTO 03008KT 10SM CLR 15/05 A3040 RMK AO2 T01480048
KERV 161415Z AUTO 01006KT 10SM CLR 14/06 A3039 RMK AO2 T01390058
KERV 161355Z AUTO 01004KT 10SM CLR 13/07 A3038 RMK AO2 T01300066
KERV 161335Z AUTO 35003KT 10SM CLR 11/07 A3037 RMK AO2 T01140068
KERV 161315Z AUTO 34003KT 10SM CLR 11/06 A3037 RMK AO2 T01060063
KERV 161255Z AUTO 34004KT 10SM CLR 11/06 A3036 RMK AO2 T01060064
KERV 161235Z AUTO 34004KT 10SM CLR 11/06 A3035 RMK AO2 T01060062
KERV 161215Z AUTO 34004KT 10SM CLR 11/06 A3035 RMK AO2 T01060055
KERV 161155Z AUTO 35004KT 10SM CLR 11/05 A3034 RMK AO2 T01060051 10161 20106
KERV 161135Z AUTO 35003KT 10SM CLR 11/05 A3033 RMK AO2 T01100050
KERV 161115Z AUTO 36003KT 10SM CLR 12/05 A3032 RMK AO2 T01200053
KERV 161055Z AUTO 36006KT 10SM CLR 12/06 A3032 RMK AO2 T01200055
KERV 161035Z AUTO 35004KT 10SM CLR 12/06 A3031 RMK AO2 T01200056
KERV 161015Z AUTO 34006KT 10SM CLR 14/06 A3030 RMK AO2 T01350060
KERV 160955Z AUTO 35007KT 10SM CLR 14/06 A3030 RMK AO2 T01350061
KERV 160935Z AUTO 35007KT 10SM CLR 14/06 A3030 RMK AO2 T01350060
KERV 160915Z AUTO 35007KT 10SM CLR 14/06 A3029 RMK AO2 T01350056
KERV 160855Z AUTO 01007KT 10SM CLR 14/05 A3029 RMK AO2 T01350054
KERV 160835Z AUTO 01006KT 10SM CLR 14/06 A3029 RMK AO2 T01350059
KERV 160815Z AUTO 35004KT 10SM CLR 14/07 A3030 RMK AO2 T01350065
KERV 160755Z AUTO 01006KT 10SM CLR 14/07 A3030 RMK AO2 T01380067
KERV 160735Z AUTO 36009KT 10SM CLR 14/07 A3029 RMK AO2 T01420070
KERV 160715Z AUTO 01007G14KT 10SM CLR 15/07 A3029 RMK AO2 T01480071
KERV 160655Z AUTO 01006KT 10SM CLR 15/07 A3029 RMK AO2 T01480066
KERV 160635Z AUTO 01008G15KT 10SM CLR 15/07 A3029 RMK AO2 T01500069
KERV 160615Z AUTO 01008KT 10SM CLR 15/08 A3028 RMK AO2 T01520076
KERV 160555Z AUTO 36010G15KT 10SM CLR 16/08 A3028 RMK AO2 T01620083 10220 20162 402950162
KERV 160535Z AUTO 01008KT 10SM CLR 16/09 A3028 RMK AO2 T01620085
KERV 160515Z AUTO 01006KT 10SM CLR 16/08 A3028 RMK AO2 T01620084
KERV 160455Z AUTO 02006KT 10SM CLR 16/09 A3027 RMK AO2 T01620085
KERV 160435Z AUTO 01009KT 10SM CLR 17/09 A3026 RMK AO2 T01700085
KERV 160415Z AUTO 02008G16KT 10SM CLR 17/09 A3025 RMK AO2 T01700087
KERV 160355Z AUTO 01011G16KT 10SM CLR 18/09 A3024 RMK AO2 T01750094
KERV 160335Z AUTO 01009KT 10SM CLR 18/09 A3022 RMK AO2 T01770092
KERV 160315Z AUTO 01011G16KT 10SM CLR 18/09 A3021 RMK AO2 T01780093
KERV 160255Z AUTO 01008G16KT 10SM CLR 18/10 A3020 RMK AO2 T01820095
KERV 160235Z AUTO 01009KT 10SM CLR 19/10 A3018 RMK AO2 T01850096
KERV 160215Z AUTO 36009KT 10SM CLR 19/10 A3016 RMK AO2 T01860100
KERV 160155Z AUTO 36010G14KT 10SM CLR 19/10 A3015 RMK AO2 T01900101
KERV 160135Z AUTO 36010G14KT 10SM CLR 19/11 A3014 RMK AO2 T01900106
KERV 160115Z AUTO 35004KT 10SM CLR 19/12 A3014 RMK AO2 T01900115
KERV 160055Z AUTO 35006KT 10SM CLR 19/12 A3013 RMK AO2 T01900120
KERV 160035Z AUTO 35006KT 10SM CLR 19/12 A3012 RMK AO2 T01940124
KERV 160015Z AUTO 35006KT 10SM CLR 21/12 A3012 RMK AO2 T02050123
KERV 152355Z AUTO 35007G15KT 10SM CLR 22/13 A3011 RMK AO2 T02200130 10295 20220
KERV 152335Z AUTO 35012G17KT 10SM CLR 22/12 A3011 RMK AO2 T02200118
KERV 152315Z AUTO 34017KT 10SM CLR 23/13 A3010 RMK AO2 T02320129
KERV 152255Z AUTO 34012G18KT 10SM CLR 23/13 A3010 RMK AO2 T02260134
KERV 152235Z AUTO 35013G20KT 10SM CLR 23/13 A3009 RMK AO2 T02330134
KERV 152215Z AUTO 35015G19KT 10SM CLR 25/15 A3008 RMK AO2 T02470146
KERV 152155Z AUTO 35012G20KT 10SM CLR 25/14 A3007 RMK AO2 T02470138
KERV 152135Z AUTO 33014G21KT 10SM CLR 26/13 A3005 RMK AO2 T02600134
KERV 152115Z AUTO 35013G23KT 10SM CLR 26/14 A3005 RMK AO2 T02610136
KERV 152055Z AUTO 35015G20KT 10SM CLR 25/14 A3005 RMK AO2 LTG DSNT SE T02530135
KERV 152035Z AUTO 36014G19KT 10SM SCT120 25/13 A3005 RMK AO2 T02490129
KERV 152015Z AUTO 36012G18KT 10SM BKN120 25/13 A3005 RMK AO2 T02470133
KERV 151955Z AUTO 35014G22KT 10SM BKN120 25/14 A3005 RMK AO2 T02470139
KERV 151935Z AUTO 35015G19KT 10SM CLR 26/14 A3004 RMK AO2 T02610138
KERV 151915Z AUTO 35015G22KT 10SM SCT070 26/18 A3003 RMK AO2 T02610175
KERV 151855Z AUTO 36014G19KT 10SM SCT070 28/18 A3002 RMK AO2 T02810177
KERV 151835Z AUTO 35008KT 320V020 10SM SCT044 30/19 A3003 RMK AO2 T02950190
KERV 151815Z AUTO 30006KT 10SM SCT040 SCT049 SCT100 28/20 A3003 RMK AO2 T02750202
KERV 151755Z AUTO 32012G15KT 10SM SCT049 SCT100 29/22 A3003 RMK AO2 T02900215 10290 20220
KERV 151735Z AUTO 35003KT 10SM SCT025 SCT029 28/22 A3004 RMK AO2 T02820216
KERV 151715Z AUTO 28005KT 10SM SCT023 SCT029 SCT050 28/23 A3005 RMK AO2 T02750225
KERV 151655Z AUTO 30005KT 10SM SCT031 SCT050 SCT065 26/23 A3005 RMK AO2 T02640225
KERV 151635Z AUTO 34004KT 10SM SCT012 SCT021 BKN031 26/23 A3005 RMK AO2 T02590227
KERV 151615Z AUTO 33004KT 10SM SCT012 SCT021 OVC033 25/22 A3005 RMK AO2 T02470220
KERV 151555Z AUTO 32005KT 7SM SCT010 SCT014 OVC033 25/22 A3005 RMK AO2 T02470221
KERV 151535Z AUTO 28003KT 7SM SCT008 OVC030 25/23 A3005 RMK AO2 T02470225
KERV 151515Z AUTO 00000KT 7SM SCT008 BKN014 OVC030 23/22 A3004 RMK AO2 T02330216
KERV 151455Z AUTO 31005KT 5SM BR BKN008 OVC016 23/21 A3003 RMK AO2 T02260211
KERV 151435Z AUTO 32005KT 3SM BR BKN005 OVC010 22/21 A3002 RMK AO2 T02200205
KERV 151415Z AUTO 31005KT 5SM BR OVC007 22/21 A3001 RMK AO2 T02200205
KERV 151355Z AUTO 33003KT 4SM BR OVC009 22/21 A3000 RMK AO2 T02200205
KERV 151335Z AUTO 00000KT 4SM BR OVC011 22/21 A2999 RMK AO2 T02200205
KERV 151315Z AUTO 00000KT 4SM BR SCT013 22/21 A2998 RMK AO2 T02200205
KERV 151255Z AUTO 00000KT 5SM BR SCT019 22/21 A2997 RMK AO2 T02200205
KERV 151235Z AUTO 00000KT 10SM OVC019 22/20 A2996 RMK AO2 T02200202
KERV 151215Z AUTO 00000KT 10SM OVC014 22/21 A2996 RMK AO2 T02200205
KERV 151155Z AUTO 00000KT 7SM OVC012 22/21 A2996 RMK AO2 T02200205 10220 20197
KERV 151135Z AUTO 00000KT 7SM OVC012 22/21 A2995 RMK AO2 T02200205
KERV 151115Z AUTO 00000KT 7SM OVC012 22/21 A2994 RMK AO2 T02200205
KERV 151055Z AUTO 00000KT 7SM OVC010 22/21 A2994 RMK AO2 T02200205
KERV 151035Z AUTO 00000KT 7SM OVC007 22/21 A2993 RMK AO2 T02200205
KERV 151015Z AUTO 17003KT 7SM OVC007 22/21 A2993 RMK AO2 T02200205
KERV 150955Z AUTO 17006KT 5SM BR OVC005 22/21 A2993 RMK AO2 T02200205
KERV 150935Z AUTO 17004KT 1 3/4SM BR OVC003 22/21 A2992 RMK AO2 T02200205
KERV 150915Z AUTO 17006KT 4SM BR OVC003 22/21 A2992 RMK AO2 T02200205
KERV 150855Z AUTO 18003KT 4SM BR OVC003 22/21 A2992 RMK AO2 T02200205
KERV 150835Z AUTO 16003KT 5SM BR OVC005 22/21 A2992 RMK AO2 T02200205
KERV 150815Z AUTO 14004KT 7SM OVC005 22/21 A2992 RMK AO2 T02200205
KERV 150755Z AUTO 16003KT 7SM OVC005 22/21 A2992 RMK AO2 T02200205
KERV 150735Z AUTO 14003KT 10SM OVC005 22/21 A2992 RMK AO2 T02200205
KERV 150715Z AUTO 00000KT 10SM OVC007 21/19 A2992 RMK AO2 T02050191
KERV 150655Z AUTO 00000KT 10SM OVC007 21/19 A2992 RMK AO2 T02050191